Time;durP1;ratioP1;P1;durP2;ratioP2;P2;SDS_P1;SDS_P2;PMS_P1;PMS_P2;Temp;Humidity;BMP_temperature;BMP_pressure;BME280_temperature;BME280_humidity;BME280_pressure;Samples;Min_cycle;Max_cycle;Signal;HPM_P1;HPM_P2
2023/07/23 00:00:37;;;;;;;26.60;12.57;;;;;;;25.72;77.30;100441.22;5071909;28;20053;-63
2023/07/23 00:03:27;;;;;;;19.63;11.93;;;;;;;25.90;75.36;100448.81;5060941;28;20040;-62
2023/07/23 00:06:10;;;;;;;26.27;11.70;;;;;;;26.00;74.20;100445.31;5060649;28;20057;-63
2023/07/23 00:08:51;;;;;;;24.27;12.63;;;;;;;26.04;73.74;100451.28;5059383;28;20047;-60
2023/07/23 00:11:34;;;;;;;35.37;13.10;;;;;;;26.07;73.27;100445.69;5069896;28;20054;-61
2023/07/23 00:14:17;;;;;;;21.93;11.73;;;;;;;26.25;72.36;100449.56;5062060;28;20458;-61
2023/07/23 00:17:04;;;;;;;27.37;12.23;;;;;;;26.28;71.52;100442.28;5060587;28;20142;-62
2023/07/23 00:19:46;;;;;;;16.10;10.70;;;;;;;26.21;71.64;100441.94;5069396;28;20059;-63
2023/07/23 00:22:36;;;;;;;18.13;11.23;;;;;;;26.10;70.95;100434.72;5071028;28;20518;-61
2023/07/23 00:25:18;;;;;;;15.90;10.20;;;;;;;26.08;71.38;100450.06;5060708;28;20094;-62
2023/07/23 00:28:04;;;;;;;32.30;11.53;;;;;;;26.15;71.88;100435.22;5059885;28;20047;-64
2023/07/23 00:30:49;;;;;;;16.63;10.33;;;;;;;26.09;71.31;100433.03;5070436;28;20047;-66
2023/07/23 00:33:28;;;;;;;25.07;11.53;;;;;;;26.14;71.23;100432.69;5071695;28;20135;-65
2023/07/23 00:36:03;;;;;;;17.83;10.40;;;;;;;26.17;70.60;100435.94;5060491;28;20343;-65
2023/07/23 00:38:36;;;;;;;21.77;10.73;;;;;;;26.31;71.36;100428.63;5070250;28;20032;-60
2023/07/23 00:41:15;;;;;;;27.47;11.53;;;;;;;26.37;70.34;100436.19;5060140;28;20101;-63
2023/07/23 00:44:01;;;;;;;14.07;9.63;;;;;;;26.33;68.46;100424.84;5059874;28;20391;-64
2023/07/23 00:46:41;;;;;;;13.60;9.23;;;;;;;26.29;67.99;100417.22;5071812;28;20051;-64
2023/07/23 00:49:14;;;;;;;12.80;8.63;;;;;;;26.26;67.37;100423.66;5061984;28;20470;-64
2023/07/23 00:51:45;;;;;;;13.23;8.60;;;;;;;26.21;67.51;100421.34;5061559;28;20975;-65
2023/07/23 00:54:23;;;;;;;13.33;7.73;;;;;;;26.16;66.84;100417.31;5070207;28;20116;-62
2023/07/23 00:57:07;;;;;;;11.53;7.20;;;;;;;26.07;66.72;100421.59;5060189;28;20059;-62
2023/07/23 00:59:46;;;;;;;14.57;6.83;;;;;;;25.99;65.94;100418.66;5067014;28;20139;-62
2023/07/23 01:02:17;;;;;;;15.60;6.30;;;;;;;25.80;66.48;100393.28;5068887;28;20529;-62
2023/07/23 01:04:54;;;;;;;10.13;5.63;;;;;;;25.98;65.94;100420.47;5059978;28;20140;-62
2023/07/23 01:07:41;;;;;;;13.07;6.20;;;;;;;25.98;64.84;100422.31;5068927;28;20063;-60
2023/07/23 01:10:25;;;;;;;9.23;5.53;;;;;;;26.00;65.78;100412.31;5059338;28;20039;-63
2023/07/23 01:13:08;;;;;;;16.30;6.30;;;;;;;26.12;67.00;100410.50;5058719;28;20040;-63
2023/07/23 01:15:57;;;;;;;8.33;5.90;;;;;;;26.28;66.33;100427.06;5076266;28;20062;-63
2023/07/23 01:18:40;;;;;;;9.53;5.73;;;;;;;26.36;66.92;100426.44;5100608;28;20050;-62
2023/07/23 01:21:37;;;;;;;10.20;5.50;;;;;;;26.36;66.37;100415.72;5061138;28;20048;-63
2023/07/23 01:24:28;;;;;;;7.70;5.60;;;;;;;26.30;65.63;100418.91;5080415;28;20458;-62
2023/07/23 01:27:09;;;;;;;17.43;5.90;;;;;;;26.31;65.63;100420.59;5062046;28;20287;-63
2023/07/23 01:29:54;;;;;;;9.37;5.73;;;;;;;26.25;64.88;100417.44;5063058;28;20044;-64
2023/07/23 01:32:42;;;;;;;9.03;5.40;;;;;;;26.27;64.34;100420.00;5085546;28;20077;-63
2023/07/23 01:35:25;;;;;;;53.43;9.47;;;;;;;26.22;65.28;100415.00;5092169;28;20058;-63
2023/07/23 01:38:20;;;;;;;15.13;5.93;;;;;;;26.04;65.65;100392.38;5106399;28;20039;-63
2023/07/23 01:41:05;;;;;;;12.10;5.60;;;;;;;26.19;64.70;100430.50;5100452;28;20040;-62
2023/07/23 01:43:47;;;;;;;8.10;5.07;;;;;;;26.32;66.64;100433.03;5073667;28;20035;-62
2023/07/23 01:46:30;;;;;;;7.43;5.23;;;;;;;26.34;64.19;100420.38;5076272;28;20040;-62
2023/07/23 01:49:12;;;;;;;13.10;5.73;;;;;;;26.26;63.39;100426.34;5062547;28;20064;-63
2023/07/23 01:51:55;;;;;;;9.07;5.30;;;;;;;26.32;64.89;100423.16;5064979;28;20048;-66
2023/07/23 01:54:37;;;;;;;506.73;59.33;;;;;;;26.54;65.56;100422.34;5072496;28;20067;-63
2023/07/23 01:57:23;;;;;;;10.50;5.27;;;;;;;26.65;63.75;100413.41;5102906;28;20035;-65
2023/07/23 02:00:07;;;;;;;13.27;5.50;;;;;;;26.64;64.12;100417.94;5074394;28;20126;-64
2023/07/23 02:02:53;;;;;;;14.47;5.60;;;;;;;26.60;63.22;100405.75;5062227;28;20461;-64
2023/07/23 02:05:39;;;;;;;7.00;4.60;;;;;;;26.47;63.46;100389.78;5069366;28;20040;-66
2023/07/23 02:08:25;;;;;;;7.90;4.90;;;;;;;26.52;62.07;100410.84;5072714;28;20036;-64
2023/07/23 02:11:12;;;;;;;8.63;5.03;;;;;;;26.62;62.90;100414.50;5078592;28;20105;-64
2023/07/23 02:13:58;;;;;;;10.43;5.53;;;;;;;26.88;61.34;100406.16;5064296;28;20063;-64
2023/07/23 02:16:40;;;;;;;14.73;5.33;;;;;;;27.05;62.28;100373.44;5091966;28;20061;-63
2023/07/23 02:19:24;;;;;;;8.00;4.90;;;;;;;27.46;61.40;100393.28;5086510;28;20123;-64
2023/07/23 02:22:07;;;;;;;15.27;5.90;;;;;;;27.29;60.40;100401.91;5061665;28;20032;-63
2023/07/23 02:24:56;;;;;;;9.47;5.10;;;;;;;27.14;60.59;100397.78;5061426;28;20043;-64
2023/07/23 02:27:38;;;;;;;11.27;5.23;;;;;;;27.11;61.87;100398.91;5078221;28;20036;-65
2023/07/23 02:30:23;;;;;;;12.37;5.17;;;;;;;27.20;62.44;100397.31;5102132;28;20358;-65
2023/07/23 02:33:06;;;;;;;11.53;6.17;;;;;;;27.31;61.82;100389.22;5112700;28;20046;-64
2023/07/23 02:35:51;;;;;;;9.30;5.20;;;;;;;27.39;62.15;100383.19;5106751;28;20044;-64
2023/07/23 02:38:39;;;;;;;8.63;5.23;;;;;;;27.31;60.74;100378.47;5077657;28;20377;-64
2023/07/23 02:41:22;;;;;;;8.43;4.97;;;;;;;27.31;61.49;100378.47;5075868;28;20058;-64
2023/07/23 02:44:05;;;;;;;11.03;5.40;;;;;;;27.30;60.47;100382.13;5072276;28;20044;-64
2023/07/23 02:46:53;;;;;;;7.33;4.87;;;;;;;27.16;58.97;100387.75;5097398;28;20040;-64
2023/07/23 02:49:33;;;;;;;;;;;;;;;27.01;59.43;100387.22;5091414;28;20123;-64
2023/07/23 02:52:15;;;;;;;7.50;5.37;;;;;;;26.87;62.21;100354.38;5085309;28;19926;-64
2023/07/23 02:55:02;;;;;;;17.67;7.37;;;;;;;27.06;60.72;100375.16;5102978;28;20062;-63
2023/07/23 02:57:45;;;;;;;10.27;5.00;;;;;;;27.01;60.22;100372.00;5080585;28;20036;-64
2023/07/23 03:00:28;;;;;;;12.87;7.10;;;;;;;26.81;59.56;100368.31;5065359;28;20050;-64
2023/07/23 03:03:13;;;;;;;14.90;6.17;;;;;;;26.82;61.73;100382.56;5064674;28;20042;-64
2023/07/23 03:05:56;;;;;;;7.83;5.27;;;;;;;27.03;60.98;100375.41;5074936;28;20450;-63
2023/07/23 03:08:38;;;;;;;5.43;4.47;;;;;;;26.98;58.79;100382.97;5097950;28;20513;-61
2023/07/23 03:11:20;;;;;;;6.50;4.60;;;;;;;26.94;59.28;100369.97;5062919;28;20047;-65
2023/07/23 03:14:07;;;;;;;8.33;4.77;;;;;;;26.89;59.52;100373.03;5074556;28;20126;-64
2023/07/23 03:16:56;;;;;;;10.57;4.33;;;;;;;26.91;60.59;100379.13;5074459;28;20164;-64
2023/07/23 03:19:42;;;;;;;8.33;4.77;;;;;;;27.06;60.76;100391.25;5077689;28;20040;-64
2023/07/23 03:22:25;;;;;;;6.63;4.70;;;;;;;27.42;60.39;100373.03;5064054;28;20048;-63
2023/07/23 03:25:07;;;;;;;7.60;4.97;;;;;;;27.73;58.50;100367.69;5060341;28;20055;-65
2023/07/23 03:27:50;;;;;;;8.83;4.80;;;;;;;27.65;57.65;100360.31;5063284;28;20063;-61
2023/07/23 03:30:32;;;;;;;8.73;4.90;;;;;;;27.49;58.41;100366.16;5072108;28;20043;-61
2023/07/23 03:33:08;;;;;;;8.57;5.03;;;;;;;27.15;57.92;100356.56;5060009;28;20146;-60
2023/07/23 03:35:41;;;;;;;6.93;4.93;;;;;;;26.94;60.07;100360.09;5072675;28;20428;-62
2023/07/23 03:38:25;;;;;;;8.43;4.67;;;;;;;26.93;60.59;100362.88;5062127;28;20116;-65
2023/07/23 03:41:09;;;;;;;9.17;5.73;;;;;;;26.93;60.01;100357.53;5061540;28;20046;-63
2023/07/23 03:43:51;;;;;;;8.07;4.60;;;;;;;27.01;59.76;100371.13;5060779;28;20051;-60
2023/07/23 03:46:38;;;;;;;10.17;4.90;;;;;;;27.25;60.97;100368.25;5071710;28;20284;-63
2023/07/23 03:49:21;;;;;;;10.20;4.60;;;;;;;27.19;59.47;100368.78;5064288;28;20055;-64
2023/07/23 03:52:13;;;;;;;8.93;4.57;;;;;;;27.02;59.93;100357.59;5061882;28;20108;-63
2023/07/23 03:54:46;;;;;;;7.53;4.60;;;;;;;26.73;59.57;100345.78;5060650;28;20440;-64
2023/07/23 03:57:19;;;;;;;8.30;4.27;;;;;;;26.52;60.12;100338.50;5072019;28;20373;-62
2023/07/23 03:59:57;;;;;;;7.43;4.77;;;;;;;26.31;61.39;100341.13;5061886;28;20052;-63
2023/07/23 04:02:29;;;;;;;7.38;4.63;;;;;;;26.25;62.17;100331.72;5072028;28;20052;-61
2023/07/23 04:05:08;;;;;;;9.57;5.00;;;;;;;26.30;62.02;100327.84;5061762;28;20044;-63
2023/07/23 04:07:46;;;;;;;10.70;4.50;;;;;;;26.42;62.33;100332.19;5060426;28;20129;-64
2023/07/23 04:10:20;;;;;;;6.53;4.67;;;;;;;26.48;61.73;100342.41;5071623;28;20059;-63
2023/07/23 04:12:51;;;;;;;9.30;4.80;;;;;;;26.61;62.67;100343.16;5060822;28;20083;-64
2023/07/23 04:15:23;;;;;;;9.17;4.50;;;;;;;26.73;63.15;100322.50;5072416;28;20132;-62
2023/07/23 04:17:56;;;;;;;11.17;4.40;;;;;;;26.85;62.41;100344.75;5042720;28;20393;-63
2023/07/23 04:20:27;;;;;;;7.40;4.97;;;;;;;26.80;62.64;100357.69;5071721;28;20131;-63
2023/07/23 04:23:02;;;;;;;10.53;5.60;;;;;;;26.62;61.09;100342.16;5060550;28;20400;-61
2023/07/23 04:25:33;;;;;;;9.33;5.10;;;;;;;26.42;61.57;100359.84;5071131;28;20043;-62
2023/07/23 04:28:05;;;;;;;8.43;4.90;;;;;;;26.39;62.74;100349.38;5061816;28;20056;-63
2023/07/23 04:30:40;;;;;;;6.90;4.63;;;;;;;26.47;62.63;100346.06;5073550;28;20696;-65
2023/07/23 04:33:12;;;;;;;11.77;4.93;;;;;;;26.43;63.09;100333.88;5061146;28;20039;-62
2023/07/23 04:35:43;;;;;;;7.07;4.67;;;;;;;26.45;63.47;100331.94;5060743;28;20358;-64
2023/07/23 04:38:21;;;;;;;6.97;4.33;;;;;;;26.30;62.38;100322.47;5071832;28;20343;-62
2023/07/23 04:40:55;;;;;;;7.37;4.57;;;;;;;26.08;62.90;100328.72;5059584;28;20551;-64
2023/07/23 04:43:37;;;;;;;9.70;4.15;;;;;;;26.03;64.32;100310.34;5070248;28;20054;-61
2023/07/23 04:46:14;;;;;;;;;;;;;;;26.21;65.55;100303.50;5061702;28;20044;-62
2023/07/23 04:48:55;;;;;;;16.10;10.33;;;;;;;26.48;65.99;100315.59;5060669;28;20006;-66
2023/07/23 04:51:37;;;;;;;7.93;4.63;;;;;;;26.68;65.61;100320.22;5071129;28;20044;-66
2023/07/23 04:54:28;;;;;;;36.93;21.63;;;;;;;26.81;65.50;100311.13;5061177;28;20826;-66
2023/07/23 04:57:01;;;;;;;12.27;6.20;;;;;;;26.78;64.36;100319.44;5060886;28;20105;-64
2023/07/23 04:59:37;;;;;;;10.87;5.50;;;;;;;26.72;64.37;100322.63;5070729;28;20432;-63
2023/07/23 05:02:17;;;;;;;10.57;5.27;;;;;;;26.60;64.84;100319.97;5058659;28;20066;-63
2023/07/23 05:04:54;;;;;;;10.80;4.93;;;;;;;26.51;65.13;100315.38;5060242;28;20483;-65
2023/07/23 05:07:33;;;;;;;;;;;;;;;26.48;66.21;100304.88;5054694;28;20042;-64
2023/07/23 05:10:14;;;;;;;10.32;5.45;;;;;;;26.41;65.81;100309.03;5061378;28;19928;-65
2023/07/23 05:12:51;;;;;;;14.40;4.93;;;;;;;26.36;65.50;100305.88;5060496;28;20032;-64
2023/07/23 05:15:32;;;;;;;7.80;4.73;;;;;;;26.29;65.44;100315.44;5069631;28;20043;-65
2023/07/23 05:18:12;;;;;;;7.83;3.80;;;;;;;26.36;66.09;100330.00;5059035;28;20150;-66
2023/07/23 05:20:55;;;;;;;11.87;5.43;;;;;;;26.18;64.98;100325.16;5059178;28;20332;-65
2023/07/23 05:23:36;;;;;;;8.10;4.93;;;;;;;26.24;65.43;100330.03;5070621;28;20051;-64
2023/07/23 05:26:20;;;;;;;10.60;4.60;;;;;;;26.22;65.47;100331.97;5059345;28;20428;-64
2023/07/23 05:28:59;;;;;;;9.00;4.17;;;;;;;26.20;66.44;100328.56;5058796;28;20846;-63
2023/07/23 05:31:36;;;;;;;;;;;;;;;26.15;66.21;100327.25;5070618;28;20040;-60
2023/07/23 05:34:17;;;;;;;6.97;4.10;;;;;;;26.12;66.36;100320.31;5059587;28;19923;-64
2023/07/23 05:36:55;;;;;;;10.10;5.37;;;;;;;26.19;67.03;100318.84;5060914;28;20059;-64
2023/07/23 05:39:34;;;;;;;12.37;6.73;;;;;;;26.22;66.37;100318.59;5069287;28;20501;-63
2023/07/23 05:42:18;;;;;;;28.50;22.80;;;;;;;26.32;66.42;100315.19;5059452;28;20066;-63
2023/07/23 05:45:01;;;;;;;67.00;41.90;;;;;;;26.46;66.92;100312.22;5059974;28;20052;-65
2023/07/23 05:47:43;;;;;;;20.97;14.07;;;;;;;26.56;66.10;100306.97;5071400;28;20484;-66
2023/07/23 05:50:26;;;;;;;28.07;19.83;;;;;;;26.65;65.59;100301.69;5060975;28;20039;-64
2023/07/23 05:53:07;;;;;;;5.90;4.37;;;;;;;26.63;63.86;100298.31;5060058;28;20071;-62
2023/07/23 05:55:50;;;;;;;10.27;7.20;;;;;;;26.51;64.43;100299.28;5061342;28;20051;-66
2023/07/23 05:58:41;;;;;;;14.82;5.22;;;;;;;26.55;64.69;100300.75;5070946;28;20075;-66
2023/07/23 06:01:22;;;;;;;20.40;14.07;;;;;;;26.47;64.68;100303.19;5058728;28;20047;-63
2023/07/23 06:04:14;;;;;;;15.10;7.03;;;;;;;26.42;65.22;100294.69;5059256;28;20378;-64
2023/07/23 06:07:03;;;;;;;12.10;7.50;;;;;;;26.43;65.63;100291.03;5059574;28;20063;-65
2023/07/23 06:09:45;;;;;;;10.77;5.80;;;;;;;26.38;65.33;100294.06;5071519;28;20060;-59
2023/07/23 06:12:33;;;;;;;10.13;4.63;;;;;;;26.42;65.46;100294.69;5071873;28;20112;-62
2023/07/23 06:15:22;;;;;;;16.23;7.03;;;;;;;26.47;65.60;100292.47;5062356;28;20138;-66
2023/07/23 06:18:11;;;;;;;14.57;6.57;;;;;;;26.45;65.26;100278.34;5063523;28;20486;-66
2023/07/23 06:20:57;;;;;;;22.50;11.50;;;;;;;26.58;64.47;100289.78;5062303;28;20122;-62
2023/07/23 06:23:40;;;;;;;10.10;6.10;;;;;;;26.61;64.82;100284.19;5073666;28;20407;-64
2023/07/23 06:26:21;;;;;;;16.63;6.70;;;;;;;26.66;64.63;100279.28;5063997;28;20035;-65
2023/07/23 06:29:08;;;;;;;7.63;4.50;;;;;;;26.54;64.16;100283.00;5063934;28;20044;-68
2023/07/23 06:31:48;;;;;;;13.43;5.00;;;;;;;26.48;64.17;100288.81;5063867;28;20385;-68
2023/07/23 06:34:27;;;;;;;9.43;4.60;;;;;;;26.40;63.68;100293.97;5075901;28;20051;-66
2023/07/23 06:37:10;;;;;;;30.57;6.07;;;;;;;26.31;64.24;100281.31;5082797;28;20047;-67
2023/07/23 06:39:52;;;;;;;19.20;5.20;;;;;;;26.37;64.61;100287.03;5093295;28;20119;-66
2023/07/23 06:42:39;;;;;;;7.20;4.30;;;;;;;26.35;65.27;100283.63;5085769;28;20036;-65
2023/07/23 06:45:21;;;;;;;13.60;4.70;;;;;;;26.35;65.27;100293.50;5080658;28;20040;-67
2023/07/23 06:48:10;;;;;;;8.77;4.47;;;;;;;26.32;65.63;100288.38;5083520;28;20130;-62
2023/07/23 06:50:56;;;;;;;11.50;5.03;;;;;;;26.27;65.51;100290.59;5098280;28;20035;-67
2023/07/23 06:53:38;;;;;;;7.27;4.90;;;;;;;26.30;66.04;100295.69;5102238;28;20453;-67
2023/07/23 06:56:20;;;;;;;18.17;5.20;;;;;;;26.32;65.79;100299.94;5079585;28;20048;-67
2023/07/23 06:59:03;;;;;;;9.30;4.97;;;;;;;26.30;66.33;100301.06;5084366;28;20073;-67
2023/07/23 07:01:46;;;;;;;13.90;4.77;;;;;;;26.16;65.75;100300.34;5094682;28;20054;-67
2023/07/23 07:04:32;;;;;;;12.10;4.70;;;;;;;26.01;65.51;100302.44;5084457;28;20355;-66
2023/07/23 07:07:14;;;;;;;11.13;5.00;;;;;;;25.85;66.63;100295.72;5075929;28;20058;-62
2023/07/23 07:12:51;;;;;;;18.57;5.43;;;;;;;25.50;66.73;100292.19;5061189;28;20071;-64
2023/07/23 07:15:33;;;;;;;9.20;5.07;;;;;;;25.42;67.95;100280.41;5071391;28;20051;-62
2023/07/23 07:18:27;;;;;;;16.27;5.40;;;;;;;25.48;68.20;100277.22;5061374;28;20052;-61
2023/07/23 07:21:13;;;;;;;12.57;4.90;;;;;;;25.54;68.07;100314.22;5060052;28;20216;-64
2023/07/23 07:23:51;;;;;;;9.60;4.83;;;;;;;25.52;67.78;100324.19;5061099;28;20051;-65
2023/07/23 07:26:22;;;;;;;11.27;4.97;;;;;;;25.51;67.21;100303.72;5072016;28;20143;-62
2023/07/23 07:28:53;;;;;;;11.90;5.23;;;;;;;25.55;67.76;100310.56;5062204;28;20044;-60
2023/07/23 07:31:24;;;;;;;11.37;5.37;;;;;;;25.56;67.20;100312.25;5073141;28;20055;-62
2023/07/23 07:33:54;;;;;;;11.57;5.03;;;;;;;25.32;67.48;100257.03;5062234;28;20117;-64
2023/07/23 07:36:27;;;;;;;11.97;5.83;;;;;;;25.52;67.67;100289.41;5071447;28;20423;-65
2023/07/23 07:38:57;;;;;;;12.50;6.00;;;;;;;25.48;68.54;100266.53;5061685;28;20148;-65
2023/07/23 07:41:28;;;;;;;12.80;4.77;;;;;;;25.36;68.44;100274.56;5072379;28;20047;-63
2023/07/23 07:43:59;;;;;;;11.40;5.00;;;;;;;25.26;69.16;100272.69;5061062;28;20060;-65
2023/07/23 07:46:30;;;;;;;13.37;5.60;;;;;;;25.29;69.47;100277.84;5072010;28;20474;-66
2023/07/23 07:49:04;;;;;;;23.37;6.40;;;;;;;25.26;69.77;100283.41;5061390;28;20052;-66
2023/07/23 07:51:38;;;;;;;12.43;4.90;;;;;;;25.15;69.89;100286.88;5071799;28;20059;-64
2023/07/23 07:54:09;;;;;;;13.47;5.00;;;;;;;25.08;69.83;100290.97;5061426;28;20142;-62
2023/07/23 07:56:43;;;;;;;20.30;5.40;;;;;;;25.01;70.00;100289.75;5071208;28;20087;-66
2023/07/23 07:59:14;;;;;;;8.67;4.83;;;;;;;24.84;69.64;100283.88;5063153;28;20151;-62
2023/07/23 08:01:45;;;;;;;7.97;5.23;;;;;;;24.71;70.39;100278.63;5061469;28;20059;-61
2023/07/23 08:04:16;;;;;;;7.90;5.20;;;;;;;24.70;70.79;100270.69;5072272;28;20378;-66
2023/07/23 08:06:50;;;;;;;8.83;5.13;;;;;;;24.62;70.83;100267.75;5061655;28;20048;-60
2023/07/23 08:09:21;;;;;;;13.80;5.27;;;;;;;24.46;70.84;100266.25;5071169;28;20058;-61
2023/07/23 08:11:55;;;;;;;11.87;5.43;;;;;;;23.89;71.35;100189.44;5061905;28;20531;-66
2023/07/23 08:14:26;;;;;;;11.63;5.00;;;;;;;23.96;71.85;100214.69;5070506;28;20143;-65
2023/07/23 08:16:57;;;;;;;8.57;5.27;;;;;;;24.16;72.16;100255.94;5060298;28;20071;-67
2023/07/23 08:19:28;;;;;;;11.07;5.07;;;;;;;24.09;71.84;100255.56;5072090;28;20691;-65
2023/07/23 08:22:01;;;;;;;11.63;5.37;;;;;;;24.01;72.08;100252.63;5060605;28;20071;-65
2023/07/23 08:24:32;;;;;;;12.47;5.03;;;;;;;23.88;72.84;100252.63;5068771;28;20048;-66
2023/07/23 08:27:08;;;;;;;7.73;5.13;;;;;;;23.80;72.95;100270.16;5061838;28;20086;-66
2023/07/23 08:29:41;;;;;;;12.90;5.10;;;;;;;23.74;73.48;100271.47;5071404;28;20059;-65
2023/07/23 08:32:16;;;;;;;16.80;6.10;;;;;;;23.78;73.91;100288.09;5060396;28;20114;-64
2023/07/23 08:34:47;;;;;;;14.60;5.40;;;;;;;23.73;74.42;100274.22;5060918;28;20072;-67
2023/07/23 08:37:21;;;;;;;11.73;6.00;;;;;;;23.71;74.51;100270.78;5072362;28;20139;-66
2023/07/23 08:39:52;;;;;;;9.63;5.80;;;;;;;23.74;74.47;100278.59;5061585;28;20099;-67
2023/07/23 08:43:09;;;;;;;16.70;7.93;;;;;;;23.73;74.70;100255.53;5071768;28;20044;-67
2023/07/23 08:46:17;;;;;;;17.70;6.07;;;;;;;23.69;74.31;100242.41;5070332;28;20428;-64
2023/07/23 08:49:05;;;;;;;11.02;5.13;;;;;;;23.63;74.63;100248.16;5058473;28;20035;-66
2023/07/23 08:51:41;;;;;;;12.93;6.27;;;;;;;23.59;75.02;100252.03;5079298;28;20071;-67
2023/07/23 08:54:15;;;;;;;14.27;5.80;;;;;;;23.56;75.32;100225.53;5075586;28;20128;-67
2023/07/23 08:56:46;;;;;;;18.07;6.53;;;;;;;23.52;75.31;100213.41;5069187;28;20055;-66
2023/07/23 08:59:16;;;;;;;13.47;5.93;;;;;;;23.66;76.11;100242.63;5089931;28;20044;-68
2023/07/23 09:32:57;;;;;;;19.15;6.70;;;;;;;22.71;81.59;100259.81;5082705;28;20150;-66
2023/07/23 09:35:33;;;;;;;11.90;5.23;;;;;;;22.66;81.74;100256.59;5094050;28;20044;-65
2023/07/23 09:38:05;;;;;;;11.53;5.53;;;;;;;22.65;81.97;100260.22;5093511;28;20442;-66
2023/07/23 09:40:37;;;;;;;12.03;6.00;;;;;;;22.60;81.74;100257.03;5095707;28;20142;-68
2023/07/23 09:43:13;;;;;;;13.37;6.13;;;;;;;22.53;82.15;100255.72;5114333;28;20048;-66
2023/07/23 09:45:46;;;;;;;12.93;6.00;;;;;;;22.52;82.51;100264.69;5118216;28;20055;-66
2023/07/23 09:48:21;;;;;;;14.77;6.30;;;;;;;22.50;82.61;100267.44;5118049;28;20135;-67
2023/07/23 09:50:59;;;;;;;10.80;5.43;;;;;;;22.44;82.58;100273.16;5109117;28;20048;-67
2023/07/23 09:53:35;;;;;;;11.43;5.90;;;;;;;22.40;82.93;100284.97;5116310;28;20050;-67
2023/07/23 09:56:08;;;;;;;13.20;5.67;;;;;;;22.38;83.24;100290.38;5117549;28;20427;-68
2023/07/23 09:58:43;;;;;;;12.77;5.83;;;;;;;22.37;83.31;100283.34;5117571;28;20062;-68
2023/07/23 10:01:16;;;;;;;12.30;6.00;;;;;;;22.30;83.49;100271.41;5118284;28;20079;-65
2023/07/23 10:03:50;;;;;;;8.90;5.77;;;;;;;22.23;83.96;100270.09;5118713;28;20050;-66
2023/07/23 10:06:24;;;;;;;8.63;5.80;;;;;;;22.15;84.47;100269.69;5118140;28;20075;-67
2023/07/23 10:08:56;;;;;;;11.80;6.00;;;;;;;22.13;84.62;100274.25;5117979;28;20051;-67
2023/07/23 10:11:28;;;;;;;8.67;5.50;;;;;;;22.08;84.70;100265.72;5117694;28;20044;-67
2023/07/23 10:14:02;;;;;;;7.97;5.10;;;;;;;22.01;84.98;100270.56;5113807;28;20062;-67
2023/07/23 10:16:39;;;;;;;9.27;5.23;;;;;;;22.00;84.93;100268.03;5097540;28;20135;-66
2023/07/23 10:19:15;;;;;;;14.53;6.00;;;;;;;21.96;85.44;100268.19;5095619;28;20565;-67
2023/07/23 10:21:50;;;;;;;17.40;6.53;;;;;;;21.74;85.39;100227.97;5097864;28;20285;-66
2023/07/23 10:24:22;;;;;;;12.37;5.93;;;;;;;21.91;85.35;100259.66;5096832;28;20040;-64
2023/07/23 10:26:55;;;;;;;14.57;5.70;;;;;;;21.83;85.20;100256.66;5075479;28;20344;-65
2023/07/23 10:29:27;;;;;;;11.17;5.63;;;;;;;21.87;85.01;100268.81;5073489;28;20051;-63
2023/07/23 10:32:26;;;;;;;10.63;6.17;;;;;;;21.85;85.09;100257.41;5063208;28;20289;-63
2023/07/23 10:35:01;;;;;;;19.10;6.20;;;;;;;21.58;84.97;100219.25;5082140;28;20751;-66
2023/07/23 10:37:32;;;;;;;12.97;5.90;;;;;;;21.73;84.99;100266.16;5096636;28;20313;-65
2023/07/23 10:40:04;;;;;;;12.40;5.60;;;;;;;21.69;85.09;100280.59;5097851;28;20310;-66
2023/07/23 10:42:42;;;;;;;12.33;5.73;;;;;;;21.68;84.47;100284.22;5096964;28;20040;-65
2023/07/23 10:45:29;;;;;;;15.67;5.87;;;;;;;21.39;84.80;100231.06;5097199;28;20062;-66
2023/07/23 10:48:03;;;;;;;11.97;6.00;;;;;;;21.10;84.62;100177.84;5064489;28;20286;-65
2023/07/23 10:50:39;;;;;;;12.53;5.13;;;;;;;21.65;84.74;100271.09;5083959;28;20670;-65
2023/07/23 10:53:12;;;;;;;11.13;5.60;;;;;;;21.61;85.14;100282.88;5074000;28;20766;-65
2023/07/23 10:55:47;;;;;;;10.57;5.93;;;;;;;21.47;85.16;100271.31;5063485;28;20652;-65
2023/07/23 10:58:23;;;;;;;12.60;6.07;;;;;;;21.34;84.84;100270.28;5088415;28;20126;-65
2023/07/23 11:00:59;;;;;;;20.17;7.03;;;;;;;21.50;85.12;100292.38;5065822;28;20346;-64
2023/07/23 11:03:31;;;;;;;10.90;5.97;;;;;;;21.50;84.74;100297.69;5081451;28;20340;-64
2023/07/23 11:06:06;;;;;;;10.53;7.43;;;;;;;21.51;84.51;100310.00;5069864;28;20272;-65
2023/07/23 11:08:50;;;;;;;11.87;7.17;;;;;;;21.49;84.53;100322.56;5078611;28;20266;-65
2023/07/23 11:11:29;;;;;;;10.00;6.13;;;;;;;21.45;84.67;100326.34;5082323;28;20278;-64
2023/07/23 11:14:01;;;;;;;11.87;6.50;;;;;;;21.16;85.21;100274.06;5083481;28;20285;-63
2023/07/23 11:16:37;;;;;;;14.43;6.47;;;;;;;21.23;85.18;100278.06;5073523;28;20350;-65
2023/07/23 11:19:10;;;;;;;11.83;6.13;;;;;;;21.18;85.10;100274.84;5063037;28;20323;-65
2023/07/23 11:21:54;;;;;;;11.77;6.07;;;;;;;21.19;84.60;100284.50;5071234;28;20384;-62
2023/07/23 11:24:27;;;;;;;9.90;6.07;;;;;;;21.21;84.47;100290.59;5072915;28;20290;-63
2023/07/23 11:27:03;;;;;;;12.30;5.97;;;;;;;21.14;84.71;100281.28;5062154;28;20317;-64
2023/07/23 11:29:34;;;;;;;8.17;5.63;;;;;;;21.08;84.53;100279.84;5073117;28;20361;-65
2023/07/23 11:32:08;;;;;;;15.13;6.50;;;;;;;21.19;84.62;100305.78;5061576;28;20454;-64
2023/07/23 11:34:40;;;;;;;13.17;6.60;;;;;;;21.14;84.69;100303.38;5071929;28;20748;-64
2023/07/23 11:37:17;;;;;;;10.63;7.10;;;;;;;20.92;84.78;100279.91;5062641;28;20289;-63
2023/07/23 11:39:54;;;;;;;11.73;6.00;;;;;;;21.09;85.19;100306.34;5060666;28;20282;-61
2023/07/23 11:42:26;;;;;;;11.03;6.40;;;;;;;21.07;85.10;100302.91;5072118;28;20680;-63
2023/07/23 11:45:04;;;;;;;12.13;6.10;;;;;;;21.03;85.47;100314.66;5062133;28;20401;-64
2023/07/23 11:47:49;;;;;;;11.80;6.40;;;;;;;20.88;85.83;100310.25;5072080;28;20298;-61
2023/07/23 11:50:25;;;;;;;11.90;7.47;;;;;;;20.88;86.38;100329.69;5061212;28;20671;-64
2023/07/23 11:53:06;;;;;;;11.47;6.73;;;;;;;20.87;86.84;100324.50;5061776;28;20763;-59
2023/07/23 11:55:38;;;;;;;13.17;7.30;;;;;;;20.85;87.12;100323.72;5072402;28;20346;-61
2023/07/23 12:18:51;;;;;;;17.58;7.68;;;;;;;20.42;90.43;100315.53;5059337;28;20286;-64
2023/07/23 12:21:24;;;;;;;19.73;8.00;;;;;;;20.29;90.93;100307.38;5072849;28;20048;-64
2023/07/23 12:23:57;;;;;;;16.23;8.27;;;;;;;20.22;91.80;100317.50;5060232;28;20276;-63
2023/07/23 12:26:31;;;;;;;13.33;8.10;;;;;;;20.17;92.34;100316.91;5071765;28;20356;-64
2023/07/23 12:29:02;;;;;;;14.63;8.37;;;;;;;20.11;93.07;100319.88;5060174;28;20288;-64
2023/07/23 12:31:37;;;;;;;18.13;8.90;;;;;;;20.12;93.59;100321.59;5070272;28;20290;-61
2023/07/23 12:34:11;;;;;;;15.60;7.93;;;;;;;20.04;94.21;100318.50;5059892;28;20736;-61
2023/07/23 12:36:45;;;;;;;17.83;8.53;;;;;;;20.08;94.35;100325.34;5054966;28;20376;-62
2023/07/23 12:39:19;;;;;;;14.40;7.80;;;;;;;19.64;94.28;100251.69;5080687;28;20322;-58
2023/07/23 12:41:53;;;;;;;14.03;8.23;;;;;;;20.07;94.71;100317.47;5074720;28;20265;-61
2023/07/23 12:44:25;;;;;;;13.53;8.20;;;;;;;20.05;94.78;100314.91;5085476;28;20306;-61
